createdAt,value
2018-05-29T00:02:30.154Z,101856.06
2018-05-29T00:05:33.468Z,101860.56
2018-05-29T00:08:37.558Z,101844.70
2018-05-29T00:11:40.861Z,101850.20
2018-05-29T00:14:44.187Z,101875.55
2018-05-29T00:17:47.502Z,101879.09
2018-05-29T00:20:50.838Z,101871.92
2018-05-29T00:23:54.149Z,101867.83
2018-05-29T00:26:57.466Z,101851.36
2018-05-29T00:30:01.538Z,101834.88
2018-05-29T00:33:04.877Z,101828.21
2018-05-29T00:36:08.949Z,101807.99
2018-05-29T00:39:12.267Z,101809.20
2018-05-29T00:42:15.577Z,101805.25
2018-05-29T00:45:19.662Z,101817.92
2018-05-29T00:48:22.977Z,101813.78
2018-05-29T00:51:26.300Z,101823.63
2018-05-29T00:54:29.609Z,101883.95
2018-05-29T00:57:33.706Z,101920.89
2018-05-29T01:00:37.019Z,101894.34
2018-05-29T01:03:41.108Z,101887.65
2018-05-29T01:06:45.186Z,101903.67
2018-05-29T01:09:48.505Z,101888.07
2018-05-29T01:12:51.833Z,101876.34
2018-05-29T01:15:55.137Z,101872.28
2018-05-29T01:18:58.462Z,101866.09
2018-05-29T01:22:01.766Z,101881.93
2018-05-29T01:25:05.090Z,101886.59
2018-05-29T01:28:08.393Z,101898.16
2018-05-29T01:31:12.482Z,101910.48
2018-05-29T01:34:15.794Z,101920.02
2018-05-29T01:37:19.110Z,101929.19
2018-05-29T01:40:23.195Z,101917.02
2018-05-29T01:43:26.681Z,101906.36
2018-05-29T01:46:29.993Z,101891.88
2018-05-29T01:49:33.314Z,101860.87
2018-05-29T01:52:37.395Z,101838.11
2018-05-29T01:55:40.714Z,101823.63
2018-05-29T01:58:44.794Z,101806.30
2018-05-29T02:01:49.766Z,101788.56
2018-05-29T02:04:53.849Z,101770.09
2018-05-29T02:07:57.166Z,101753.36
2018-05-29T02:11:00.493Z,101751.60
2018-05-29T02:14:03.806Z,101741.42
2018-05-29T02:17:07.122Z,101742.13
2018-05-29T02:20:10.434Z,101734.92
2018-05-29T02:23:13.768Z,101728.20
2018-05-29T02:26:17.075Z,101717.31
2018-05-29T02:29:20.393Z,101712.60
2018-05-29T02:32:23.714Z,101713.55
2018-05-29T02:35:27.031Z,101714.68
2018-05-29T02:38:30.346Z,101712.17
2018-05-29T02:41:33.684Z,101718.69
2018-05-29T02:44:36.993Z,101715.97
2018-05-29T02:47:40.478Z,101720.44
2018-05-29T02:50:43.785Z,101712.98
2018-05-29T02:53:47.106Z,101717.05
2018-05-29T02:56:50.413Z,101714.61
2018-05-29T02:59:53.746Z,101724.70
2018-05-29T03:02:57.079Z,101727.30
2018-05-29T03:06:00.422Z,101726.02
2018-05-29T03:09:04.501Z,101726.00
2018-05-29T03:12:07.820Z,101725.63
2018-05-29T03:15:11.142Z,101733.08
2018-05-29T03:18:14.450Z,101734.19
2018-05-29T03:21:17.765Z,101735.44
2018-05-29T03:24:21.110Z,101737.88
2018-05-29T03:27:24.418Z,101747.58
2018-05-29T03:30:27.739Z,101750.84
2018-05-29T03:33:31.054Z,101742.92
2018-05-29T03:36:34.375Z,101740.50
2018-05-29T03:39:37.702Z,101729.06
2018-05-29T03:42:41.781Z,101721.47
2018-05-29T03:45:45.114Z,101724.55
2018-05-29T03:48:49.193Z,101728.94
2018-05-29T03:51:52.519Z,101727.08
2018-05-29T03:54:56.622Z,101742.34
2018-05-29T03:57:59.937Z,101743.23
2018-05-29T04:01:04.030Z,101751.61
2018-05-29T04:04:08.108Z,101751.94
2018-05-29T04:07:11.430Z,101739.91
2018-05-29T04:10:14.730Z,101740.31
2018-05-29T04:13:19.020Z,101738.42
2018-05-29T04:16:22.333Z,101737.03
2018-05-29T04:19:25.658Z,101734.42
2018-05-29T04:22:28.979Z,101727.02
2018-05-29T04:25:32.317Z,101728.82
2018-05-29T04:28:35.626Z,101722.03
2018-05-29T04:31:38.958Z,101716.42
2018-05-29T04:34:43.031Z,101725.03
2018-05-29T04:37:46.357Z,101716.77
2018-05-29T04:40:49.665Z,101726.46
2018-05-29T04:43:53.752Z,101723.11
2018-05-29T04:46:57.068Z,101738.33
2018-05-29T04:50:01.153Z,101746.67
2018-05-29T04:53:04.469Z,101747.50
2018-05-29T04:56:07.785Z,101753.93
2018-05-29T04:59:11.880Z,101761.05
2018-05-29T05:02:15.212Z,101753.03
2018-05-29T05:05:18.529Z,101749.16
2018-05-29T05:08:21.833Z,101756.19
2018-05-29T05:11:25.149Z,101761.05
2018-05-29T05:14:28.470Z,101767.77
2018-05-29T05:17:31.779Z,101771.23
2018-05-29T05:20:35.869Z,101777.68
2018-05-29T05:23:39.177Z,101764.44
2018-05-29T05:26:42.505Z,101753.09
2018-05-29T05:29:45.818Z,101753.67
2018-05-29T05:32:49.129Z,101748.16
2018-05-29T05:35:52.429Z,101757.83
2018-05-29T05:38:55.767Z,101756.13
2018-05-29T05:41:59.068Z,101761.00
2018-05-29T05:45:03.149Z,101763.24
2018-05-29T05:48:06.511Z,101750.84
2018-05-29T05:51:10.563Z,101746.01
2018-05-29T05:54:13.885Z,101739.70
2018-05-29T05:57:17.957Z,101736.62
2018-05-29T06:00:21.277Z,101720.34
2018-05-29T06:03:24.604Z,101725.17
2018-05-29T06:06:27.913Z,101729.31
2018-05-29T06:09:31.234Z,101729.57
2018-05-29T06:12:34.550Z,101727.25
2018-05-29T06:15:37.867Z,101741.50
2018-05-29T06:18:41.205Z,101743.05
2018-05-29T06:21:44.518Z,101738.19
2018-05-29T06:24:47.845Z,101735.40
2018-05-29T06:27:51.163Z,101740.75
2018-05-29T06:30:55.244Z,101735.76
2018-05-29T06:33:58.569Z,101748.22
2018-05-29T06:37:01.915Z,101707.88
2018-05-29T06:40:05.230Z,101725.05
2018-05-29T06:43:08.549Z,101718.24
2018-05-29T06:46:11.856Z,101708.44
2018-05-29T06:49:15.182Z,101716.91
2018-05-29T06:52:18.496Z,101735.65
2018-05-29T06:55:21.813Z,101717.61
2018-05-29T06:58:25.117Z,101712.91
2018-05-29T07:01:28.438Z,101707.88
2018-05-29T07:04:31.751Z,101707.88
2018-05-29T07:07:35.833Z,101715.62
2018-05-29T07:10:39.142Z,101716.62
2018-05-29T07:13:42.459Z,101722.36
2018-05-29T07:16:46.558Z,101726.55
2018-05-29T07:19:49.895Z,101732.47
2018-05-29T07:22:53.228Z,101736.52
2018-05-29T07:25:56.533Z,101750.95
2018-05-29T07:28:59.850Z,101762.39
2018-05-29T07:32:03.149Z,101762.92
2018-05-29T07:35:07.226Z,101771.86
2018-05-29T07:38:10.530Z,101758.95
2018-05-29T07:41:13.865Z,101760.23
2018-05-29T07:44:17.937Z,101771.91
2018-05-29T07:47:21.244Z,101745.00
2018-05-29T07:50:24.573Z,101765.78
2018-05-29T07:53:28.660Z,101771.50
2018-05-29T07:56:32.757Z,101781.93
2018-05-29T07:59:36.075Z,101784.56
2018-05-29T08:02:39.382Z,101779.83
2018-05-29T08:05:43.458Z,101770.02
2018-05-29T08:08:46.768Z,101773.45
2018-05-29T08:11:50.077Z,101773.47
2018-05-29T08:14:53.386Z,101780.38
2018-05-29T08:17:56.702Z,101781.17
2018-05-29T08:21:00.773Z,101775.13
2018-05-29T08:24:04.093Z,101766.66
2018-05-29T08:27:07.392Z,101767.32
2018-05-29T08:30:11.473Z,101759.22
2018-05-29T08:33:14.779Z,101757.08
2018-05-29T08:36:18.106Z,101750.02
2018-05-29T08:39:22.231Z,101751.25
2018-05-29T08:42:25.505Z,101748.55
2018-05-29T08:45:28.805Z,101750.75
2018-05-29T08:48:32.113Z,101736.27
2018-05-29T08:51:36.189Z,101726.61
2018-05-29T08:54:39.502Z,101726.48
2018-05-29T08:57:42.827Z,101721.48
2018-05-29T09:00:46.135Z,101718.43
2018-05-29T09:03:49.548Z,101715.98
2018-05-29T09:06:52.814Z,101723.78
2018-05-29T09:09:56.913Z,101713.39
2018-05-29T09:13:00.226Z,101717.61
2018-05-29T09:16:04.301Z,101716.66
2018-05-29T09:19:07.605Z,101719.22
2018-05-29T09:22:10.913Z,101716.41
2018-05-29T09:25:14.209Z,101710.63
2018-05-29T09:28:17.525Z,101711.16
2018-05-29T09:31:21.708Z,101703.53
2018-05-29T09:34:25.021Z,101696.62
2018-05-29T09:37:29.137Z,101696.34
2018-05-29T09:40:32.441Z,101690.55
2018-05-29T09:43:36.533Z,101692.55
2018-05-29T09:46:39.841Z,101686.22
2018-05-29T09:49:43.170Z,101685.86
2018-05-29T09:52:46.479Z,101683.08
2018-05-29T09:55:49.801Z,101669.66
2018-05-29T09:58:53.096Z,101674.27
2018-05-29T10:01:56.410Z,101670.42
2018-05-29T10:04:59.730Z,101662.80
2018-05-29T10:08:03.806Z,101662.12
2018-05-29T10:11:07.130Z,101646.45
2018-05-29T10:14:10.436Z,101646.20
2018-05-29T10:17:14.517Z,101647.16
2018-05-29T10:20:17.828Z,101654.59
2018-05-29T10:23:21.149Z,101643.84
2018-05-29T10:26:24.458Z,101643.84
2018-05-29T10:29:27.785Z,101643.17
2018-05-29T10:32:31.278Z,101644.30
2018-05-29T10:35:34.590Z,101640.84
2018-05-29T10:38:37.909Z,101645.44
2018-05-29T10:41:41.217Z,101636.47
2018-05-29T10:44:44.534Z,101638.39
2018-05-29T10:47:47.861Z,101628.58
2018-05-29T10:50:51.170Z,101623.85
2018-05-29T10:53:54.689Z,101614.57
2018-05-29T10:56:58.012Z,101623.57
2018-05-29T11:00:02.109Z,101617.47
2018-05-29T11:03:05.425Z,101608.52
2018-05-29T11:06:09.517Z,101612.85
2018-05-29T11:09:12.830Z,101598.47
2018-05-29T11:12:16.158Z,101609.03
2018-05-29T11:15:19.469Z,101597.96
2018-05-29T11:18:22.797Z,101597.42
2018-05-29T11:21:26.100Z,101597.23
2018-05-29T11:24:29.425Z,101596.03
2018-05-29T11:27:33.513Z,101593.94
2018-05-29T11:30:36.829Z,101601.70
2018-05-29T11:33:40.903Z,101599.86
2018-05-29T11:36:44.228Z,101591.70
2018-05-29T11:39:47.555Z,101595.69
2018-05-29T11:42:50.878Z,101594.09
2018-05-29T11:45:54.204Z,101588.70
2018-05-29T11:48:57.521Z,101595.02
2018-05-29T11:52:00.846Z,101577.91
2018-05-29T11:55:04.161Z,101584.91
2018-05-29T11:58:07.480Z,101575.89
2018-05-29T12:01:10.795Z,101580.11
2018-05-29T12:04:14.113Z,101584.43
2018-05-29T12:07:17.534Z,101576.02
2018-05-29T12:10:20.863Z,101585.97
2018-05-29T12:13:24.186Z,101572.78
2018-05-29T12:16:27.507Z,101586.03
2018-05-29T12:19:31.590Z,101580.77
2018-05-29T12:22:34.906Z,101583.14
2018-05-29T12:25:38.229Z,101584.26
2018-05-29T12:28:41.538Z,101591.55
2018-05-29T12:31:44.859Z,101583.70
2018-05-29T12:34:48.174Z,101577.08
2018-05-29T12:37:51.489Z,101583.52
2018-05-29T12:40:54.818Z,101579.97
2018-05-29T12:43:58.146Z,101573.94
2018-05-29T12:47:01.453Z,101583.11
2018-05-29T12:50:04.932Z,101578.22
2018-05-29T12:53:08.241Z,101572.36
2018-05-29T12:56:11.566Z,101563.13
2018-05-29T12:59:14.886Z,101563.78
2018-05-29T13:02:18.970Z,101555.55
2018-05-29T13:05:22.292Z,101551.33
2018-05-29T13:08:25.621Z,101539.33
2018-05-29T13:11:28.930Z,101538.92
2018-05-29T13:14:32.258Z,101541.05
2018-05-29T13:17:35.570Z,101536.81
2018-05-29T13:20:39.654Z,101536.33
2018-05-29T13:23:42.958Z,101538.42
2018-05-29T13:26:46.287Z,101525.80
2018-05-29T13:29:50.358Z,101530.38
2018-05-29T13:32:53.672Z,101523.72
2018-05-29T13:35:56.978Z,101528.58
2018-05-29T13:39:00.300Z,101525.15
2018-05-29T13:42:04.365Z,101521.05
2018-05-29T13:45:07.685Z,101519.26
2018-05-29T13:48:11.787Z,101516.00
2018-05-29T13:51:15.090Z,101509.14
2018-05-29T13:54:18.410Z,101510.81
2018-05-29T13:57:22.485Z,101506.83
2018-05-29T14:00:25.790Z,101513.23
2018-05-29T14:03:29.113Z,101512.02
2018-05-29T14:06:33.186Z,101503.92
2018-05-29T14:09:36.510Z,101498.39
2018-05-29T14:12:39.814Z,101497.87
2018-05-29T14:15:43.134Z,101490.32
2018-05-29T14:18:46.487Z,101483.66
2018-05-29T14:21:49.774Z,101493.12
2018-05-29T14:24:53.081Z,101481.47
2018-05-29T14:27:56.390Z,101478.91
2018-05-29T14:30:59.710Z,101465.03
2018-05-29T14:34:03.017Z,101466.21
2018-05-29T14:37:06.330Z,101454.98
2018-05-29T14:40:09.637Z,101455.52
2018-05-29T14:43:13.126Z,101448.19
2018-05-29T14:46:16.447Z,101446.61
2018-05-29T14:49:19.785Z,101445.45
2018-05-29T14:52:23.911Z,101438.22
2018-05-29T14:55:27.205Z,101443.64
2018-05-29T14:58:31.281Z,101444.25
2018-05-29T15:01:34.741Z,101443.75
2018-05-29T15:04:38.045Z,101435.91
2018-05-29T15:07:41.369Z,101434.45
2018-05-29T15:10:44.684Z,101428.59
2018-05-29T15:13:48.021Z,101438.29
2018-05-29T15:16:51.354Z,101430.22
2018-05-29T15:19:54.675Z,101423.22
2018-05-29T15:22:58.010Z,101430.80
2018-05-29T15:26:01.365Z,101431.88
2018-05-29T15:29:04.655Z,101431.89
2018-05-29T15:32:07.969Z,101422.09
2018-05-29T15:35:11.287Z,101420.86
2018-05-29T15:38:14.593Z,101424.05
2018-05-29T15:41:17.937Z,101409.59
2018-05-29T15:44:21.258Z,101414.42
2018-05-29T15:47:25.337Z,101414.43
2018-05-29T15:50:28.742Z,101419.38
2018-05-29T15:53:32.058Z,101408.84
2018-05-29T15:56:35.378Z,101419.47
2018-05-29T15:59:38.681Z,101407.60
2018-05-29T16:02:41.990Z,101407.19
2018-05-29T16:05:45.293Z,101397.58
2018-05-29T16:08:48.609Z,101386.83
2018-05-29T16:11:51.918Z,101384.43
2018-05-29T16:14:55.237Z,101388.69
2018-05-29T16:17:58.554Z,101388.61
2018-05-29T16:21:02.651Z,101386.69
2018-05-29T16:24:06.919Z,101392.87
2018-05-29T16:27:13.614Z,101386.52
2018-05-29T16:30:16.933Z,101385.94
2018-05-29T16:33:20.241Z,101388.67
2018-05-29T16:36:23.633Z,101383.94
2018-05-29T16:39:26.974Z,101389.02
2018-05-29T16:42:30.282Z,101390.36
2018-05-29T16:45:33.590Z,101389.81
2018-05-29T16:48:36.906Z,101392.23
2018-05-29T16:51:40.217Z,101391.98
2018-05-29T16:54:43.533Z,101386.90
2018-05-29T16:57:46.846Z,101383.00
2018-05-29T17:00:50.186Z,101384.39
2018-05-29T17:03:53.489Z,101384.91
2018-05-29T17:06:56.829Z,101385.48
2018-05-29T17:10:00.142Z,101384.00
2018-05-29T17:13:03.453Z,101388.16
2018-05-29T17:16:06.775Z,101389.10
2018-05-29T17:19:10.734Z,101383.05
2018-05-29T17:22:14.058Z,101393.83
2018-05-29T17:25:17.394Z,101395.63
2018-05-29T17:28:20.714Z,101396.77
2018-05-29T17:31:24.022Z,101404.81
2018-05-29T17:34:27.348Z,101405.98
2018-05-29T17:37:30.648Z,101403.14
2018-05-29T17:40:33.957Z,101401.78
2018-05-29T17:43:37.265Z,101399.59
2018-05-29T17:46:40.578Z,101404.62
2018-05-29T17:49:44.661Z,101412.67
2018-05-29T17:52:47.997Z,101403.55
2018-05-29T17:55:52.110Z,101408.53
2018-05-29T17:58:56.215Z,101405.97
2018-05-29T18:01:59.529Z,101406.69
2018-05-29T18:05:02.842Z,101402.17
2018-05-29T18:08:06.159Z,101398.01
2018-05-29T18:11:09.545Z,101408.17
2018-05-29T18:14:12.862Z,101407.57
2018-05-29T18:17:16.160Z,101411.55
2018-05-29T18:20:19.646Z,101414.13
2018-05-29T18:23:22.949Z,101409.75
2018-05-29T18:26:26.283Z,101405.27
2018-05-29T18:29:29.595Z,101401.94
2018-05-29T18:32:33.674Z,101397.28
2018-05-29T18:35:36.982Z,101406.58
2018-05-29T18:38:40.318Z,101404.14
2018-05-29T18:41:43.621Z,101407.08
2018-05-29T18:44:47.007Z,101410.99
2018-05-29T18:47:51.114Z,101415.18
2018-05-29T18:50:54.414Z,101406.53
2018-05-29T18:53:58.501Z,101409.20
2018-05-29T18:57:01.828Z,101411.22
2018-05-29T19:00:05.137Z,101411.86
2018-05-29T19:03:08.454Z,101409.21
2018-05-29T19:06:11.754Z,101415.10
2018-05-29T19:09:15.071Z,101416.63
2018-05-29T19:12:18.379Z,101412.96
2018-05-29T19:15:21.708Z,101421.20
2018-05-29T19:18:25.787Z,101416.16
2018-05-29T19:21:29.110Z,101401.11
2018-05-29T19:24:34.192Z,101401.44
2018-05-29T19:27:38.012Z,101412.16
2018-05-29T19:30:41.327Z,101415.47
2018-05-29T19:33:44.645Z,101423.14
2018-05-29T19:36:48.717Z,101414.19
2018-05-29T19:39:52.041Z,101422.28
2018-05-29T19:42:55.350Z,101420.80
2018-05-29T19:45:58.690Z,101428.49
2018-05-29T19:49:02.004Z,101428.28
2018-05-29T19:52:05.318Z,101421.77
2018-05-29T19:55:08.620Z,101430.55
2018-05-29T19:58:11.934Z,101427.11
2018-05-29T20:01:16.053Z,101421.77
2018-05-29T20:04:19.349Z,101430.38
2018-05-29T20:07:23.423Z,101434.56
2018-05-29T20:10:26.773Z,101427.94
2018-05-29T20:13:30.841Z,101420.36
2018-05-29T20:16:34.154Z,101418.71
2018-05-29T20:19:37.478Z,101426.47
2018-05-29T20:22:41.550Z,101434.41
2018-05-29T20:25:44.870Z,101442.17
2018-05-29T20:28:48.178Z,101436.63
2018-05-29T20:31:52.274Z,101428.91
2018-05-29T20:34:55.616Z,101432.66
2018-05-29T20:37:58.918Z,101428.53
2018-05-29T20:41:02.261Z,101432.42
2018-05-29T20:44:05.565Z,101428.14
2018-05-29T20:47:08.888Z,101423.33
2018-05-29T20:50:12.198Z,101428.86
2018-05-29T20:53:15.537Z,101429.56
2018-05-29T20:56:18.849Z,101425.84
2018-05-29T20:59:22.161Z,101416.56
2018-05-29T21:02:25.470Z,101413.94
2018-05-29T21:05:28.794Z,101420.30
2018-05-29T21:08:32.105Z,101412.72
2018-05-29T21:11:35.435Z,101417.15
2018-05-29T21:14:38.745Z,101418.62
2018-05-29T21:17:42.093Z,101425.67
2018-05-29T21:20:45.402Z,101413.80
2018-05-29T21:23:48.713Z,101426.23
2018-05-29T21:26:52.021Z,101423.75
2018-05-29T21:29:56.130Z,101424.02
2018-05-29T21:32:59.462Z,101419.61
2018-05-29T21:36:02.778Z,101420.27
2018-05-29T21:39:06.806Z,101422.91
2018-05-29T21:42:10.118Z,101416.00
2018-05-29T21:45:13.422Z,101410.75
2018-05-29T21:48:16.733Z,101404.13
2018-05-29T21:51:20.030Z,101403.71
2018-05-29T21:54:23.342Z,101407.70
2018-05-29T21:57:26.650Z,101402.17
2018-05-29T22:00:29.970Z,101401.89
2018-05-29T22:03:33.282Z,101411.69
2018-05-29T22:06:36.597Z,101404.08
2018-05-29T22:09:39.949Z,101400.63
2018-05-29T22:12:43.253Z,101408.36
2018-05-29T22:15:46.577Z,101406.14
2018-05-29T22:18:49.876Z,101406.13
2018-05-29T22:21:53.293Z,101400.88
2018-05-29T22:24:56.613Z,101405.45
2018-05-29T22:27:59.923Z,101403.92
2018-05-29T22:31:03.258Z,101403.93
2018-05-29T22:34:06.561Z,101399.91
2018-05-29T22:37:09.882Z,101399.64
2018-05-29T22:40:13.206Z,101397.98
2018-05-29T22:43:16.525Z,101397.70
2018-05-29T22:46:19.838Z,101393.95
2018-05-29T22:49:23.158Z,101398.07
2018-05-29T22:52:26.457Z,101394.33
2018-05-29T22:55:29.777Z,101383.27
2018-05-29T22:58:33.840Z,101383.39
2018-05-29T23:01:37.166Z,101394.13
2018-05-29T23:04:40.473Z,101388.90
2018-05-29T23:07:44.562Z,101379.48
2018-05-29T23:10:47.878Z,101386.38
2018-05-29T23:13:51.182Z,101388.00
2018-05-29T23:16:55.270Z,101391.03
2018-05-29T23:19:58.576Z,101402.87
2018-05-29T23:23:01.900Z,101398.71
2018-05-29T23:26:05.968Z,101390.83
2018-05-29T23:29:09.285Z,101390.98
2018-05-29T23:32:12.593Z,101391.67
2018-05-29T23:35:16.722Z,101396.61
2018-05-29T23:38:20.078Z,101393.55
2018-05-29T23:41:23.449Z,101393.82
2018-05-29T23:44:26.813Z,101400.14
2018-05-29T23:47:30.190Z,101405.23
2018-05-29T23:50:34.346Z,101404.55
2018-05-29T23:53:37.710Z,101416.69
2018-05-29T23:56:41.853Z,101415.95
2018-05-29T23:59:45.233Z,101416.65
